sensor_id;sensor_type;location;lat;lon;timestamp;P1;durP1;ratioP1;P2;durP2;ratioP2
85670;SDS011;76102;50.890;3.932;2024-03-23T00:53:41;26.35;;;10.43;;
85670;SDS011;76102;50.890;3.932;2024-03-23T00:56:07;33.72;;;12.55;;
85670;SDS011;76102;50.890;3.932;2024-03-23T00:58:32;33.72;;;12.18;;
85670;SDS011;76102;50.890;3.932;2024-03-23T01:01:01;24.77;;;11.85;;
85670;SDS011;76102;50.890;3.932;2024-03-23T01:03:28;30.27;;;12.02;;
85670;SDS011;76102;50.890;3.932;2024-03-23T01:06:02;40.35;;;14.27;;
85670;SDS011;76102;50.890;3.932;2024-03-23T01:08:29;40.47;;;11.32;;
85670;SDS011;76102;50.890;3.932;2024-03-23T01:10:55;31.48;;;11.25;;
85670;SDS011;76102;50.890;3.932;2024-03-23T01:13:21;41.63;;;14.73;;
85670;SDS011;76102;50.890;3.932;2024-03-23T01:15:48;39.92;;;17.45;;
85670;SDS011;76102;50.890;3.932;2024-03-23T01:18:18;38.45;;;15.57;;
85670;SDS011;76102;50.890;3.932;2024-03-23T01:20:45;48.85;;;16.60;;
85670;SDS011;76102;50.890;3.932;2024-03-23T01:23:13;29.20;;;13.00;;
85670;SDS011;76102;50.890;3.932;2024-03-23T01:25:39;43.25;;;17.80;;
85670;SDS011;76102;50.890;3.932;2024-03-23T01:28:05;40.03;;;17.80;;
85670;SDS011;76102;50.890;3.932;2024-03-23T01:30:34;30.65;;;12.80;;
85670;SDS011;76102;50.890;3.932;2024-03-23T01:33:01;42.85;;;18.02;;
85670;SDS011;76102;50.890;3.932;2024-03-23T01:37:57;37.05;;;13.32;;
85670;SDS011;76102;50.890;3.932;2024-03-23T01:40:22;31.95;;;13.48;;
85670;SDS011;76102;50.890;3.932;2024-03-23T01:45:23;19.13;;;10.98;;
85670;SDS011;76102;50.890;3.932;2024-03-23T01:47:50;37.70;;;17.08;;
85670;SDS011;76102;50.890;3.932;2024-03-23T01:50:19;39.78;;;18.50;;
85670;SDS011;76102;50.890;3.932;2024-03-23T01:52:48;44.20;;;18.50;;
85670;SDS011;76102;50.890;3.932;2024-03-23T01:55:14;30.52;;;12.35;;
85670;SDS011;76102;50.890;3.932;2024-03-23T01:57:40;33.75;;;16.25;;
85670;SDS011;76102;50.890;3.932;2024-03-23T02:00:06;36.95;;;14.35;;
85670;SDS011;76102;50.890;3.932;2024-03-23T02:02:35;31.52;;;14.90;;
85670;SDS011;76102;50.890;3.932;2024-03-23T02:05:03;26.25;;;11.77;;
85670;SDS011;76102;50.890;3.932;2024-03-23T02:07:29;33.53;;;15.40;;
85670;SDS011;76102;50.890;3.932;2024-03-23T02:09:57;33.90;;;14.98;;
85670;SDS011;76102;50.890;3.932;2024-03-23T02:12:23;33.85;;;15.13;;
85670;SDS011;76102;50.890;3.932;2024-03-23T02:14:49;29.88;;;14.05;;
85670;SDS011;76102;50.890;3.932;2024-03-23T02:17:16;29.70;;;13.48;;
85670;SDS011;76102;50.890;3.932;2024-03-23T02:19:42;34.67;;;12.85;;
85670;SDS011;76102;50.890;3.932;2024-03-23T02:22:08;21.10;;;11.20;;
85670;SDS011;76102;50.890;3.932;2024-03-23T02:24:35;28.13;;;12.60;;
85670;SDS011;76102;50.890;3.932;2024-03-23T02:27:03;24.83;;;14.77;;
85670;SDS011;76102;50.890;3.932;2024-03-23T02:29:34;28.38;;;12.25;;
85670;SDS011;76102;50.890;3.932;2024-03-23T02:31:59;22.85;;;9.82;;
85670;SDS011;76102;50.890;3.932;2024-03-23T02:34:27;29.90;;;12.43;;
85670;SDS011;76102;50.890;3.932;2024-03-23T02:36:53;29.80;;;12.73;;
85670;SDS011;76102;50.890;3.932;2024-03-23T02:39:19;24.60;;;10.73;;
85670;SDS011;76102;50.890;3.932;2024-03-23T02:41:47;21.33;;;9.23;;
85670;SDS011;76102;50.890;3.932;2024-03-23T02:44:15;32.30;;;12.82;;
85670;SDS011;76102;50.890;3.932;2024-03-23T02:46:43;20.35;;;10.23;;
85670;SDS011;76102;50.890;3.932;2024-03-23T02:49:08;24.15;;;11.73;;
85670;SDS011;76102;50.890;3.932;2024-03-23T02:51:36;21.73;;;12.30;;
85670;SDS011;76102;50.890;3.932;2024-03-23T02:54:05;24.77;;;11.10;;
85670;SDS011;76102;50.890;3.932;2024-03-23T02:56:32;18.25;;;9.18;;
85670;SDS011;76102;50.890;3.932;2024-03-23T02:58:58;22.98;;;9.23;;
85670;SDS011;76102;50.890;3.932;2024-03-23T03:01:26;21.85;;;10.30;;
85670;SDS011;76102;50.890;3.932;2024-03-23T03:03:59;18.98;;;9.20;;
85670;SDS011;76102;50.890;3.932;2024-03-23T03:06:26;28.23;;;10.60;;
85670;SDS011;76102;50.890;3.932;2024-03-23T03:08:57;25.83;;;10.65;;
85670;SDS011;76102;50.890;3.932;2024-03-23T03:11:30;22.15;;;10.13;;
85670;SDS011;76102;50.890;3.932;2024-03-23T03:13:56;22.42;;;8.73;;
85670;SDS011;76102;50.890;3.932;2024-03-23T03:18:53;21.35;;;8.98;;
85670;SDS011;76102;50.890;3.932;2024-03-23T03:21:18;23.38;;;9.23;;
85670;SDS011;76102;50.890;3.932;2024-03-23T03:23:47;29.75;;;10.60;;
85670;SDS011;76102;50.890;3.932;2024-03-23T03:26:17;22.15;;;9.23;;
85670;SDS011;76102;50.890;3.932;2024-03-23T03:28:43;22.48;;;8.90;;
85670;SDS011;76102;50.890;3.932;2024-03-23T03:31:14;24.88;;;9.65;;
85670;SDS011;76102;50.890;3.932;2024-03-23T03:33:40;27.33;;;10.50;;
85670;SDS011;76102;50.890;3.932;2024-03-23T03:36:08;16.27;;;8.20;;
85670;SDS011;76102;50.890;3.932;2024-03-23T03:38:36;17.85;;;8.57;;
85670;SDS011;76102;50.890;3.932;2024-03-23T03:41:03;19.73;;;9.32;;
85670;SDS011;76102;50.890;3.932;2024-03-23T03:43:29;20.17;;;8.40;;
85670;SDS011;76102;50.890;3.932;2024-03-23T03:45:59;30.55;;;9.63;;
85670;SDS011;76102;50.890;3.932;2024-03-23T03:48:26;19.33;;;8.18;;
85670;SDS011;76102;50.890;3.932;2024-03-23T03:50:54;24.75;;;9.20;;
85670;SDS011;76102;50.890;3.932;2024-03-23T03:53:22;23.48;;;10.00;;
85670;SDS011;76102;50.890;3.932;2024-03-23T03:55:47;23.27;;;9.38;;
85670;SDS011;76102;50.890;3.932;2024-03-23T03:58:18;18.10;;;8.40;;
85670;SDS011;76102;50.890;3.932;2024-03-23T04:00:46;22.55;;;9.10;;
85670;SDS011;76102;50.890;3.932;2024-03-23T04:03:14;25.65;;;9.20;;
85670;SDS011;76102;50.890;3.932;2024-03-23T04:05:42;21.00;;;10.27;;
85670;SDS011;76102;50.890;3.932;2024-03-23T04:08:07;18.00;;;8.15;;
85670;SDS011;76102;50.890;3.932;2024-03-23T04:10:36;22.30;;;9.15;;
85670;SDS011;76102;50.890;3.932;2024-03-23T04:13:01;17.67;;;8.00;;
85670;SDS011;76102;50.890;3.932;2024-03-23T04:15:29;14.25;;;7.20;;
85670;SDS011;76102;50.890;3.932;2024-03-23T04:17:55;23.33;;;9.10;;
85670;SDS011;76102;50.890;3.932;2024-03-23T04:20:21;15.85;;;7.35;;
85670;SDS011;76102;50.890;3.932;2024-03-23T04:22:48;21.70;;;8.35;;
85670;SDS011;76102;50.890;3.932;2024-03-23T04:25:14;22.10;;;7.68;;
85670;SDS011;76102;50.890;3.932;2024-03-23T04:27:40;17.75;;;7.22;;
85670;SDS011;76102;50.890;3.932;2024-03-23T04:30:09;13.70;;;6.65;;
85670;SDS011;76102;50.890;3.932;2024-03-23T04:32:39;20.38;;;7.72;;
85670;SDS011;76102;50.890;3.932;2024-03-23T04:35:05;15.10;;;7.65;;
85670;SDS011;76102;50.890;3.932;2024-03-23T04:37:31;18.73;;;8.40;;
85670;SDS011;76102;50.890;3.932;2024-03-23T04:40:00;17.45;;;6.75;;
85670;SDS011;76102;50.890;3.932;2024-03-23T04:42:29;17.98;;;6.10;;
85670;SDS011;76102;50.890;3.932;2024-03-23T04:44:55;15.43;;;5.18;;
85670;SDS011;76102;50.890;3.932;2024-03-23T04:47:20;14.10;;;5.13;;
85670;SDS011;76102;50.890;3.932;2024-03-23T04:49:46;14.25;;;5.30;;
85670;SDS011;76102;50.890;3.932;2024-03-23T04:52:14;14.82;;;4.65;;
85670;SDS011;76102;50.890;3.932;2024-03-23T04:54:40;10.45;;;4.82;;
85670;SDS011;76102;50.890;3.932;2024-03-23T04:57:08;18.92;;;5.15;;
85670;SDS011;76102;50.890;3.932;2024-03-23T04:59:37;17.27;;;5.05;;
85670;SDS011;76102;50.890;3.932;2024-03-23T05:02:05;10.57;;;4.35;;
85670;SDS011;76102;50.890;3.932;2024-03-23T05:04:30;14.50;;;4.65;;
85670;SDS011;76102;50.890;3.932;2024-03-23T05:06:58;15.32;;;4.35;;
85670;SDS011;76102;50.890;3.932;2024-03-23T05:09:24;11.85;;;4.30;;
85670;SDS011;76102;50.890;3.932;2024-03-23T05:11:52;13.13;;;4.57;;
85670;SDS011;76102;50.890;3.932;2024-03-23T05:14:20;4.63;;;3.05;;
85670;SDS011;76102;50.890;3.932;2024-03-23T05:16:45;12.80;;;4.10;;
85670;SDS011;76102;50.890;3.932;2024-03-23T05:19:14;8.32;;;3.22;;
85670;SDS011;76102;50.890;3.932;2024-03-23T05:21:44;15.73;;;4.55;;
85670;SDS011;76102;50.890;3.932;2024-03-23T05:24:11;15.60;;;4.80;;
85670;SDS011;76102;50.890;3.932;2024-03-23T05:26:37;10.20;;;4.03;;
85670;SDS011;76102;50.890;3.932;2024-03-23T05:29:05;18.05;;;4.38;;
85670;SDS011;76102;50.890;3.932;2024-03-23T05:31:38;10.80;;;3.13;;
85670;SDS011;76102;50.890;3.932;2024-03-23T05:34:06;13.60;;;3.40;;
85670;SDS011;76102;50.890;3.932;2024-03-23T05:36:32;14.60;;;3.22;;
85670;SDS011;76102;50.890;3.932;2024-03-23T05:38:57;16.63;;;3.40;;
85670;SDS011;76102;50.890;3.932;2024-03-23T05:41:25;9.90;;;3.53;;
85670;SDS011;76102;50.890;3.932;2024-03-23T05:43:51;10.73;;;3.42;;
85670;SDS011;76102;50.890;3.932;2024-03-23T05:46:16;12.40;;;4.40;;
85670;SDS011;76102;50.890;3.932;2024-03-23T05:48:43;16.80;;;3.67;;
85670;SDS011;76102;50.890;3.932;2024-03-23T05:51:11;14.10;;;3.92;;
85670;SDS011;76102;50.890;3.932;2024-03-23T05:53:38;15.55;;;3.60;;
85670;SDS011;76102;50.890;3.932;2024-03-23T05:56:06;16.40;;;3.28;;
85670;SDS011;76102;50.890;3.932;2024-03-23T05:58:32;13.35;;;4.25;;
85670;SDS011;76102;50.890;3.932;2024-03-23T06:00:58;8.45;;;3.50;;
85670;SDS011;76102;50.890;3.932;2024-03-23T06:05:52;9.95;;;3.70;;
85670;SDS011;76102;50.890;3.932;2024-03-23T06:08:18;8.52;;;3.20;;
85670;SDS011;76102;50.890;3.932;2024-03-23T06:10:45;11.55;;;3.30;;
85670;SDS011;76102;50.890;3.932;2024-03-23T06:13:11;11.63;;;3.85;;
85670;SDS011;76102;50.890;3.932;2024-03-23T06:15:39;15.00;;;4.32;;
85670;SDS011;76102;50.890;3.932;2024-03-23T06:18:05;8.52;;;2.90;;
85670;SDS011;76102;50.890;3.932;2024-03-23T06:20:34;11.15;;;3.22;;
85670;SDS011;76102;50.890;3.932;2024-03-23T06:23:00;9.75;;;3.15;;
85670;SDS011;76102;50.890;3.932;2024-03-23T06:25:27;13.73;;;3.35;;
85670;SDS011;76102;50.890;3.932;2024-03-23T06:27:53;12.15;;;3.88;;
85670;SDS011;76102;50.890;3.932;2024-03-23T06:30:19;16.20;;;2.72;;
85670;SDS011;76102;50.890;3.932;2024-03-23T06:32:45;13.55;;;3.90;;
85670;SDS011;76102;50.890;3.932;2024-03-23T06:35:11;16.23;;;3.78;;
85670;SDS011;76102;50.890;3.932;2024-03-23T06:37:39;10.05;;;2.25;;
85670;SDS011;76102;50.890;3.932;2024-03-23T06:40:07;6.13;;;2.47;;
85670;SDS011;76102;50.890;3.932;2024-03-23T06:42:37;13.93;;;3.30;;
85670;SDS011;76102;50.890;3.932;2024-03-23T06:45:05;9.85;;;2.80;;
85670;SDS011;76102;50.890;3.932;2024-03-23T06:47:31;17.70;;;3.15;;
85670;SDS011;76102;50.890;3.932;2024-03-23T06:49:59;8.30;;;2.15;;
85670;SDS011;76102;50.890;3.932;2024-03-23T06:52:27;18.02;;;3.75;;
85670;SDS011;76102;50.890;3.932;2024-03-23T06:54:53;10.18;;;2.58;;
85670;SDS011;76102;50.890;3.932;2024-03-23T06:57:18;8.85;;;2.63;;
85670;SDS011;76102;50.890;3.932;2024-03-23T06:59:46;11.25;;;2.72;;
85670;SDS011;76102;50.890;3.932;2024-03-23T07:02:12;13.60;;;3.60;;
85670;SDS011;76102;50.890;3.932;2024-03-23T07:04:41;11.65;;;2.83;;
85670;SDS011;76102;50.890;3.932;2024-03-23T07:07:11;21.90;;;3.75;;
85670;SDS011;76102;50.890;3.932;2024-03-23T07:09:37;8.88;;;2.83;;
85670;SDS011;76102;50.890;3.932;2024-03-23T07:12:03;10.38;;;3.05;;
85670;SDS011;76102;50.890;3.932;2024-03-23T07:14:31;9.25;;;2.88;;
85670;SDS011;76102;50.890;3.932;2024-03-23T07:16:56;8.18;;;2.70;;
85670;SDS011;76102;50.890;3.932;2024-03-23T07:19:25;6.78;;;2.28;;
85670;SDS011;76102;50.890;3.932;2024-03-23T07:21:50;12.48;;;2.97;;
85670;SDS011;76102;50.890;3.932;2024-03-23T07:24:16;6.70;;;2.35;;
85670;SDS011;76102;50.890;3.932;2024-03-23T07:26:44;8.15;;;2.90;;
85670;SDS011;76102;50.890;3.932;2024-03-23T07:29:10;10.32;;;2.83;;
85670;SDS011;76102;50.890;3.932;2024-03-23T07:31:35;8.20;;;2.78;;
85670;SDS011;76102;50.890;3.932;2024-03-23T07:34:03;12.10;;;3.15;;
85670;SDS011;76102;50.890;3.932;2024-03-23T07:36:30;10.27;;;2.92;;
85670;SDS011;76102;50.890;3.932;2024-03-23T07:38:58;9.85;;;2.83;;
85670;SDS011;76102;50.890;3.932;2024-03-23T07:41:29;11.63;;;2.65;;
85670;SDS011;76102;50.890;3.932;2024-03-23T07:43:55;9.60;;;2.65;;
85670;SDS011;76102;50.890;3.932;2024-03-23T07:46:21;7.85;;;2.50;;
85670;SDS011;76102;50.890;3.932;2024-03-23T07:48:47;5.50;;;2.53;;
85670;SDS011;76102;50.890;3.932;2024-03-23T07:51:18;11.70;;;3.17;;
85670;SDS011;76102;50.890;3.932;2024-03-23T07:53:50;8.48;;;2.83;;
85670;SDS011;76102;50.890;3.932;2024-03-23T07:56:17;6.72;;;2.80;;
85670;SDS011;76102;50.890;3.932;2024-03-23T07:58:48;7.70;;;3.03;;
85670;SDS011;76102;50.890;3.932;2024-03-23T08:01:17;7.85;;;2.95;;
85670;SDS011;76102;50.890;3.932;2024-03-23T08:03:43;9.25;;;3.10;;
85670;SDS011;76102;50.890;3.932;2024-03-23T08:08:45;16.13;;;2.58;;
85670;SDS011;76102;50.890;3.932;2024-03-23T08:11:11;10.43;;;2.65;;
85670;SDS011;76102;50.890;3.932;2024-03-23T08:13:40;13.27;;;3.22;;
85670;SDS011;76102;50.890;3.932;2024-03-23T08:16:07;7.75;;;2.53;;
85670;SDS011;76102;50.890;3.932;2024-03-23T08:18:37;13.30;;;2.97;;
85670;SDS011;76102;50.890;3.932;2024-03-23T08:21:03;11.93;;;3.33;;
85670;SDS011;76102;50.890;3.932;2024-03-23T08:23:32;12.27;;;3.63;;
85670;SDS011;76102;50.890;3.932;2024-03-23T08:25:59;8.63;;;2.60;;
85670;SDS011;76102;50.890;3.932;2024-03-23T08:28:26;12.23;;;2.70;;
85670;SDS011;76102;50.890;3.932;2024-03-23T08:30:52;8.88;;;2.40;;
85670;SDS011;76102;50.890;3.932;2024-03-23T08:33:19;4.68;;;2.17;;
85670;SDS011;76102;50.890;3.932;2024-03-23T08:35:57;4.57;;;2.63;;
85670;SDS011;76102;50.890;3.932;2024-03-23T08:38:24;14.95;;;3.22;;
85670;SDS011;76102;50.890;3.932;2024-03-23T08:43:30;9.00;;;3.05;;
85670;SDS011;76102;50.890;3.932;2024-03-23T08:46:13;7.97;;;2.78;;
85670;SDS011;76102;50.890;3.932;2024-03-23T08:48:45;11.57;;;3.47;;
85670;SDS011;76102;50.890;3.932;2024-03-23T08:51:14;13.50;;;3.30;;
85670;SDS011;76102;50.890;3.932;2024-03-23T08:53:41;11.80;;;3.85;;
85670;SDS011;76102;50.890;3.932;2024-03-23T08:56:07;9.60;;;3.72;;
85670;SDS011;76102;50.890;3.932;2024-03-23T08:58:34;9.60;;;3.33;;
85670;SDS011;76102;50.890;3.932;2024-03-23T09:01:10;9.87;;;3.60;;
85670;SDS011;76102;50.890;3.932;2024-03-23T09:03:38;9.05;;;3.50;;
85670;SDS011;76102;50.890;3.932;2024-03-23T09:06:10;9.85;;;4.18;;
85670;SDS011;76102;50.890;3.932;2024-03-23T09:08:37;8.02;;;3.47;;
85670;SDS011;76102;50.890;3.932;2024-03-23T09:11:07;9.23;;;3.78;;
85670;SDS011;76102;50.890;3.932;2024-03-23T09:13:37;17.75;;;4.03;;
85670;SDS011;76102;50.890;3.932;2024-03-23T09:16:03;9.60;;;3.95;;
85670;SDS011;76102;50.890;3.932;2024-03-23T09:18:34;9.88;;;3.47;;
85670;SDS011;76102;50.890;3.932;2024-03-23T09:21:02;6.82;;;3.45;;
85670;SDS011;76102;50.890;3.932;2024-03-23T09:25:55;8.30;;;2.83;;
85670;SDS011;76102;50.890;3.932;2024-03-23T09:28:20;8.40;;;3.33;;
85670;SDS011;76102;50.890;3.932;2024-03-23T09:30:48;9.48;;;2.85;;
85670;SDS011;76102;50.890;3.932;2024-03-23T09:33:14;9.80;;;3.83;;
85670;SDS011;76102;50.890;3.932;2024-03-23T09:35:40;6.85;;;3.40;;
85670;SDS011;76102;50.890;3.932;2024-03-23T09:38:07;7.50;;;4.00;;
85670;SDS011;76102;50.890;3.932;2024-03-23T09:40:34;8.93;;;3.90;;
85670;SDS011;76102;50.890;3.932;2024-03-23T09:43:00;10.18;;;4.18;;
85670;SDS011;76102;50.890;3.932;2024-03-23T09:45:29;8.25;;;4.40;;
85670;SDS011;76102;50.890;3.932;2024-03-23T09:47:55;10.00;;;3.65;;
85670;SDS011;76102;50.890;3.932;2024-03-23T09:50:21;8.07;;;3.63;;
85670;SDS011;76102;50.890;3.932;2024-03-23T09:52:47;6.68;;;3.90;;
85670;SDS011;76102;50.890;3.932;2024-03-23T09:55:12;6.65;;;3.38;;
85670;SDS011;76102;50.890;3.932;2024-03-23T09:57:39;12.38;;;4.18;;
85670;SDS011;76102;50.890;3.932;2024-03-23T10:00:10;7.03;;;3.92;;
85670;SDS011;76102;50.890;3.932;2024-03-23T10:02:39;12.25;;;5.15;;
85670;SDS011;76102;50.890;3.932;2024-03-23T10:05:05;7.25;;;3.90;;
85670;SDS011;76102;50.890;3.932;2024-03-23T10:07:52;5.65;;;2.83;;
85670;SDS011;76102;50.890;3.932;2024-03-23T10:10:20;7.97;;;3.45;;
85670;SDS011;76102;50.890;3.932;2024-03-23T10:12:49;19.92;;;4.60;;
85670;SDS011;76102;50.890;3.932;2024-03-23T10:15:24;6.57;;;3.65;;
85670;SDS011;76102;50.890;3.932;2024-03-23T10:17:54;9.75;;;3.60;;
85670;SDS011;76102;50.890;3.932;2024-03-23T10:20:23;9.60;;;3.67;;
85670;SDS011;76102;50.890;3.932;2024-03-23T10:22:53;5.90;;;2.63;;
85670;SDS011;76102;50.890;3.932;2024-03-23T10:25:24;6.07;;;2.50;;
85670;SDS011;76102;50.890;3.932;2024-03-23T10:27:59;9.35;;;2.95;;
85670;SDS011;76102;50.890;3.932;2024-03-23T10:30:33;6.72;;;3.03;;
85670;SDS011;76102;50.890;3.932;2024-03-23T10:33:08;6.40;;;2.92;;
85670;SDS011;76102;50.890;3.932;2024-03-23T10:35:38;6.53;;;2.03;;
85670;SDS011;76102;50.890;3.932;2024-03-23T10:38:04;5.43;;;1.80;;
85670;SDS011;76102;50.890;3.932;2024-03-23T10:40:36;5.18;;;2.15;;
85670;SDS011;76102;50.890;3.932;2024-03-23T10:43:09;6.97;;;1.92;;
85670;SDS011;76102;50.890;3.932;2024-03-23T10:45:34;5.53;;;2.03;;
85670;SDS011;76102;50.890;3.932;2024-03-23T10:48:01;6.45;;;1.58;;
85670;SDS011;76102;50.890;3.932;2024-03-23T10:50:29;8.70;;;2.13;;
85670;SDS011;76102;50.890;3.932;2024-03-23T10:52:54;7.28;;;2.15;;
85670;SDS011;76102;50.890;3.932;2024-03-23T10:55:24;7.72;;;1.90;;
85670;SDS011;76102;50.890;3.932;2024-03-23T10:57:51;5.65;;;1.92;;
85670;SDS011;76102;50.890;3.932;2024-03-23T11:00:19;8.55;;;1.70;;
85670;SDS011;76102;50.890;3.932;2024-03-23T11:02:48;7.03;;;1.63;;
85670;SDS011;76102;50.890;3.932;2024-03-23T11:05:47;9.10;;;1.80;;
85670;SDS011;76102;50.890;3.932;2024-03-23T11:08:11;13.83;;;2.03;;
85670;SDS011;76102;50.890;3.932;2024-03-23T11:11:11;4.40;;;1.88;;
85670;SDS011;76102;50.890;3.932;2024-03-23T11:16:28;9.82;;;2.22;;
85670;SDS011;76102;50.890;3.932;2024-03-23T11:22:03;6.82;;;1.63;;
85670;SDS011;76102;50.890;3.932;2024-03-23T11:24:30;4.70;;;1.17;;
85670;SDS011;76102;50.890;3.932;2024-03-23T11:27:01;7.57;;;1.85;;
85670;SDS011;76102;50.890;3.932;2024-03-23T11:29:40;6.47;;;2.08;;
85670;SDS011;76102;50.890;3.932;2024-03-23T11:32:07;9.32;;;2.20;;
85670;SDS011;76102;50.890;3.932;2024-03-23T11:37:04;6.50;;;1.88;;
85670;SDS011;76102;50.890;3.932;2024-03-23T11:39:31;7.85;;;2.13;;
85670;SDS011;76102;50.890;3.932;2024-03-23T11:41:59;5.43;;;1.80;;
85670;SDS011;76102;50.890;3.932;2024-03-23T11:44:25;3.85;;;1.20;;
85670;SDS011;76102;50.890;3.932;2024-03-23T11:47:06;2.55;;;0.90;;
85670;SDS011;76102;50.890;3.932;2024-03-23T11:49:35;2.67;;;1.13;;
85670;SDS011;76102;50.890;3.932;2024-03-23T11:52:05;2.38;;;1.25;;
85670;SDS011;76102;50.890;3.932;2024-03-23T11:54:34;6.55;;;1.35;;
85670;SDS011;76102;50.890;3.932;2024-03-23T11:57:02;3.97;;;1.38;;
85670;SDS011;76102;50.890;3.932;2024-03-23T11:59:36;5.15;;;1.20;;
85670;SDS011;76102;50.890;3.932;2024-03-23T12:02:12;8.93;;;1.77;;
85670;SDS011;76102;50.890;3.932;2024-03-23T12:04:43;5.93;;;1.40;;
85670;SDS011;76102;50.890;3.932;2024-03-23T12:09:44;5.63;;;1.40;;
85670;SDS011;76102;50.890;3.932;2024-03-23T12:12:16;4.25;;;1.60;;
85670;SDS011;76102;50.890;3.932;2024-03-23T12:15:02;4.10;;;1.45;;
85670;SDS011;76102;50.890;3.932;2024-03-23T12:17:33;6.03;;;2.05;;
85670;SDS011;76102;50.890;3.932;2024-03-23T12:19:59;4.28;;;1.60;;
85670;SDS011;76102;50.890;3.932;2024-03-23T12:22:25;6.65;;;2.10;;
85670;SDS011;76102;50.890;3.932;2024-03-23T12:24:53;8.85;;;2.17;;
85670;SDS011;76102;50.890;3.932;2024-03-23T12:27:21;3.60;;;1.48;;
85670;SDS011;76102;50.890;3.932;2024-03-23T12:29:47;5.03;;;1.67;;
85670;SDS011;76102;50.890;3.932;2024-03-23T12:32:13;6.05;;;1.67;;
85670;SDS011;76102;50.890;3.932;2024-03-23T12:34:42;3.60;;;1.33;;
85670;SDS011;76102;50.890;3.932;2024-03-23T12:37:08;4.70;;;1.42;;
85670;SDS011;76102;50.890;3.932;2024-03-23T12:39:42;6.45;;;1.75;;
85670;SDS011;76102;50.890;3.932;2024-03-23T12:42:07;4.35;;;1.40;;
85670;SDS011;76102;50.890;3.932;2024-03-23T12:44:35;4.10;;;1.85;;
85670;SDS011;76102;50.890;3.932;2024-03-23T12:47:01;4.53;;;1.40;;
85670;SDS011;76102;50.890;3.932;2024-03-23T12:49:27;7.03;;;1.40;;
85670;SDS011;76102;50.890;3.932;2024-03-23T12:51:54;5.00;;;1.63;;
85670;SDS011;76102;50.890;3.932;2024-03-23T12:54:24;3.85;;;1.70;;
85670;SDS011;76102;50.890;3.932;2024-03-23T12:56:50;8.18;;;1.73;;
85670;SDS011;76102;50.890;3.932;2024-03-23T12:59:18;9.05;;;1.70;;
85670;SDS011;76102;50.890;3.932;2024-03-23T13:01:46;7.15;;;1.55;;
85670;SDS011;76102;50.890;3.932;2024-03-23T13:04:11;5.90;;;1.40;;
85670;SDS011;76102;50.890;3.932;2024-03-23T13:06:37;4.57;;;1.10;;
85670;SDS011;76102;50.890;3.932;2024-03-23T13:09:05;3.97;;;1.33;;
85670;SDS011;76102;50.890;3.932;2024-03-23T13:11:31;7.53;;;1.63;;
85670;SDS011;76102;50.890;3.932;2024-03-23T13:13:56;4.70;;;1.48;;
85670;SDS011;76102;50.890;3.932;2024-03-23T13:16:25;3.72;;;1.48;;
85670;SDS011;76102;50.890;3.932;2024-03-23T13:18:50;3.40;;;1.48;;
85670;SDS011;76102;50.890;3.932;2024-03-23T13:21:16;8.52;;;1.50;;
85670;SDS011;76102;50.890;3.932;2024-03-23T13:23:42;2.60;;;0.90;;
85670;SDS011;76102;50.890;3.932;2024-03-23T13:26:10;4.75;;;1.25;;
85670;SDS011;76102;50.890;3.932;2024-03-23T13:28:39;7.22;;;1.75;;
85670;SDS011;76102;50.890;3.932;2024-03-23T13:31:04;3.38;;;1.23;;
85670;SDS011;76102;50.890;3.932;2024-03-23T13:33:35;1.88;;;0.93;;
85670;SDS011;76102;50.890;3.932;2024-03-23T13:36:03;5.50;;;1.48;;
85670;SDS011;76102;50.890;3.932;2024-03-23T13:38:31;4.32;;;1.30;;
85670;SDS011;76102;50.890;3.932;2024-03-23T13:40:59;2.85;;;1.17;;
85670;SDS011;76102;50.890;3.932;2024-03-23T13:43:26;5.97;;;1.77;;
85670;SDS011;76102;50.890;3.932;2024-03-23T13:45:58;5.18;;;1.63;;
85670;SDS011;76102;50.890;3.932;2024-03-23T13:48:27;4.85;;;1.70;;
85670;SDS011;76102;50.890;3.932;2024-03-23T13:51:00;7.07;;;1.43;;
85670;SDS011;76102;50.890;3.932;2024-03-23T13:53:28;11.32;;;1.50;;
85670;SDS011;76102;50.890;3.932;2024-03-23T13:55:57;7.75;;;2.00;;
85670;SDS011;76102;50.890;3.932;2024-03-23T13:58:23;5.70;;;2.10;;
85670;SDS011;76102;50.890;3.932;2024-03-23T14:00:50;6.72;;;1.75;;
85670;SDS011;76102;50.890;3.932;2024-03-23T14:03:16;6.50;;;1.45;;
85670;SDS011;76102;50.890;3.932;2024-03-23T14:05:43;4.13;;;1.65;;
85670;SDS011;76102;50.890;3.932;2024-03-23T14:08:14;6.18;;;1.55;;
85670;SDS011;76102;50.890;3.932;2024-03-23T14:10:42;12.30;;;1.58;;
85670;SDS011;76102;50.890;3.932;2024-03-23T14:13:10;4.53;;;1.50;;
85670;SDS011;76102;50.890;3.932;2024-03-23T14:15:36;8.48;;;1.92;;
85670;SDS011;76102;50.890;3.932;2024-03-23T14:18:02;5.22;;;1.80;;
85670;SDS011;76102;50.890;3.932;2024-03-23T14:20:28;6.55;;;2.03;;
85670;SDS011;76102;50.890;3.932;2024-03-23T14:22:56;6.80;;;1.65;;
85670;SDS011;76102;50.890;3.932;2024-03-23T14:25:21;4.03;;;1.88;;
85670;SDS011;76102;50.890;3.932;2024-03-23T14:27:52;4.90;;;1.50;;
85670;SDS011;76102;50.890;3.932;2024-03-23T14:30:20;7.70;;;2.10;;
85670;SDS011;76102;50.890;3.932;2024-03-23T14:32:45;3.72;;;1.88;;
85670;SDS011;76102;50.890;3.932;2024-03-23T14:35:11;3.63;;;1.52;;
85670;SDS011;76102;50.890;3.932;2024-03-23T14:37:37;6.72;;;1.58;;
85670;SDS011;76102;50.890;3.932;2024-03-23T14:40:03;7.63;;;1.88;;
85670;SDS011;76102;50.890;3.932;2024-03-23T14:42:29;6.75;;;2.30;;
85670;SDS011;76102;50.890;3.932;2024-03-23T14:44:56;3.97;;;1.60;;
85670;SDS011;76102;50.890;3.932;2024-03-23T14:47:22;4.72;;;2.10;;
85670;SDS011;76102;50.890;3.932;2024-03-23T14:49:47;8.07;;;1.73;;
85670;SDS011;76102;50.890;3.932;2024-03-23T14:52:15;8.70;;;1.67;;
85670;SDS011;76102;50.890;3.932;2024-03-23T14:54:46;3.38;;;1.45;;
85670;SDS011;76102;50.890;3.932;2024-03-23T14:57:12;2.80;;;1.60;;
85670;SDS011;76102;50.890;3.932;2024-03-23T14:59:38;8.63;;;2.55;;
85670;SDS011;76102;50.890;3.932;2024-03-23T15:02:09;3.58;;;1.50;;
85670;SDS011;76102;50.890;3.932;2024-03-23T15:07:01;5.63;;;1.80;;
85670;SDS011;76102;50.890;3.932;2024-03-23T15:09:29;6.05;;;1.63;;
85670;SDS011;76102;50.890;3.932;2024-03-23T15:11:55;4.50;;;1.65;;
85670;SDS011;76102;50.890;3.932;2024-03-23T15:14:23;7.88;;;1.60;;
85670;SDS011;76102;50.890;3.932;2024-03-23T15:16:49;5.43;;;1.85;;
85670;SDS011;76102;50.890;3.932;2024-03-23T15:21:43;2.33;;;1.50;;
85670;SDS011;76102;50.890;3.932;2024-03-23T15:24:09;6.93;;;1.77;;
85670;SDS011;76102;50.890;3.932;2024-03-23T15:26:38;9.55;;;1.77;;
85670;SDS011;76102;50.890;3.932;2024-03-23T15:29:07;4.53;;;1.48;;
85670;SDS011;76102;50.890;3.932;2024-03-23T15:31:37;5.03;;;1.35;;
85670;SDS011;76102;50.890;3.932;2024-03-23T15:34:03;5.53;;;1.38;;
85670;SDS011;76102;50.890;3.932;2024-03-23T15:36:29;2.83;;;1.27;;
85670;SDS011;76102;50.890;3.932;2024-03-23T15:38:57;5.38;;;1.23;;
85670;SDS011;76102;50.890;3.932;2024-03-23T15:41:25;6.78;;;1.65;;
85670;SDS011;76102;50.890;3.932;2024-03-23T15:43:55;7.20;;;1.75;;
85670;SDS011;76102;50.890;3.932;2024-03-23T15:46:21;4.13;;;1.10;;
85670;SDS011;76102;50.890;3.932;2024-03-23T15:48:49;5.65;;;1.58;;
85670;SDS011;76102;50.890;3.932;2024-03-23T15:51:17;5.30;;;1.67;;
85670;SDS011;76102;50.890;3.932;2024-03-23T15:53:43;2.88;;;1.42;;
85670;SDS011;76102;50.890;3.932;2024-03-23T15:56:09;5.57;;;1.50;;
85670;SDS011;76102;50.890;3.932;2024-03-23T15:58:37;3.13;;;1.17;;
85670;SDS011;76102;50.890;3.932;2024-03-23T16:03:31;2.47;;;1.30;;
85670;SDS011;76102;50.890;3.932;2024-03-23T16:06:03;3.35;;;1.23;;
85670;SDS011;76102;50.890;3.932;2024-03-23T16:08:29;4.60;;;1.00;;
85670;SDS011;76102;50.890;3.932;2024-03-23T16:10:59;7.97;;;2.00;;
85670;SDS011;76102;50.890;3.932;2024-03-23T16:13:25;2.13;;;1.00;;